createdAt,value
2023-01-13T00:00:16.563Z,63.09
2023-01-13T00:02:43.674Z,63.20
2023-01-13T00:05:11.544Z,62.69
2023-01-13T00:07:40.248Z,62.64
2023-01-13T00:10:10.204Z,62.64
2023-01-13T00:12:41.034Z,62.59
2023-01-13T00:15:10.190Z,62.65
2023-01-13T00:17:39.163Z,62.41
2023-01-13T00:20:07.924Z,62.72
2023-01-13T00:22:35.470Z,62.65
2023-01-13T00:25:04.269Z,62.84
2023-01-13T00:27:31.807Z,62.42
2023-01-13T00:30:00.724Z,62.13
2023-01-13T00:32:28.312Z,62.55
2023-01-13T00:34:55.641Z,62.31
2023-01-13T00:37:23.565Z,62.57
2023-01-13T00:39:51.466Z,62.48
2023-01-13T00:42:37.803Z,62.28
2023-01-13T00:45:07.526Z,62.21
2023-01-13T00:47:34.615Z,62.01
2023-01-13T00:50:01.616Z,61.97
2023-01-13T00:52:28.663Z,62.10
2023-01-13T00:54:55.669Z,62.04
2023-01-13T00:57:22.707Z,61.61
2023-01-13T00:59:49.818Z,61.00
2023-01-13T01:02:18.272Z,61.17
2023-01-13T01:04:45.389Z,60.80
2023-01-13T01:07:13.049Z,60.57
2023-01-13T01:09:40.144Z,60.37
2023-01-13T01:12:07.596Z,60.31
2023-01-13T01:14:34.743Z,60.00
2023-01-13T01:17:01.873Z,59.88
2023-01-13T01:19:30.300Z,59.91
2023-01-13T01:21:57.315Z,59.76
2023-01-13T01:24:24.407Z,59.61
2023-01-13T01:26:51.516Z,59.64
2023-01-13T01:29:18.563Z,59.67
2023-01-13T01:31:45.661Z,59.30
2023-01-13T01:34:12.698Z,59.22
2023-01-13T01:36:41.111Z,59.27
2023-01-13T01:39:08.277Z,59.01
2023-01-13T01:41:36.697Z,59.24
2023-01-13T01:44:28.577Z,58.63
2023-01-13T01:46:57.744Z,58.50
2023-01-13T01:49:32.778Z,58.44
2023-01-13T01:52:08.510Z,58.58
2023-01-13T01:54:44.019Z,58.17
2023-01-13T01:57:18.678Z,58.01
2023-01-13T01:59:46.388Z,57.52
2023-01-13T02:02:15.207Z,57.58
2023-01-13T02:04:51.218Z,57.57
2023-01-13T02:07:20.441Z,57.38
2023-01-13T02:09:48.784Z,57.37
2023-01-13T02:12:34.632Z,57.29
2023-01-13T02:15:07.526Z,57.35
2023-01-13T02:18:05.870Z,57.11
2023-01-13T02:21:27.751Z,57.05
2023-01-13T02:24:54.306Z,57.25
2023-01-13T02:27:47.950Z,57.40
2023-01-13T02:30:51.137Z,57.44
2023-01-13T02:33:37.189Z,57.11
2023-01-13T02:36:14.933Z,57.31
2023-01-13T02:38:51.481Z,57.22
2023-01-13T02:41:47.436Z,57.38
2023-01-13T02:44:23.714Z,57.49
2023-01-13T02:46:56.972Z,57.32
2023-01-13T02:49:35.863Z,57.45
2023-01-13T02:52:11.082Z,57.07
2023-01-13T02:54:44.139Z,57.37
2023-01-13T02:57:15.580Z,57.51
2023-01-13T02:59:42.900Z,57.21
2023-01-13T03:02:16.629Z,57.18
2023-01-13T03:04:54.880Z,57.07
2023-01-13T03:07:57.840Z,57.08
2023-01-13T03:10:47.711Z,57.10
2023-01-13T03:13:38.365Z,56.91
2023-01-13T03:16:18.008Z,57.10
2023-01-13T03:18:59.611Z,56.97
2023-01-13T03:21:39.179Z,56.96
2023-01-13T03:24:13.701Z,56.76
2023-01-13T03:26:48.896Z,56.86
2023-01-13T03:29:22.162Z,56.41
2023-01-13T03:32:01.230Z,56.71
2023-01-13T03:34:37.061Z,56.65
2023-01-13T03:37:09.391Z,56.69
2023-01-13T03:39:43.808Z,56.81
2023-01-13T03:42:18.499Z,57.01
2023-01-13T03:44:53.386Z,56.86
2023-01-13T03:47:30.571Z,56.77
2023-01-13T03:50:03.612Z,56.72
2023-01-13T03:52:36.250Z,56.67
2023-01-13T03:55:10.501Z,56.50
2023-01-13T03:57:52.746Z,56.50
2023-01-13T04:00:26.084Z,56.39
2023-01-13T04:03:00.563Z,56.58
2023-01-13T04:05:30.060Z,55.99
2023-01-13T04:08:12.279Z,56.38
2023-01-13T04:10:47.349Z,56.07
2023-01-13T04:13:21.245Z,56.00
2023-01-13T04:15:50.297Z,56.13
2023-01-13T04:18:21.524Z,56.02
2023-01-13T04:20:52.867Z,55.75
2023-01-13T04:23:21.402Z,55.68
2023-01-13T04:25:49.878Z,55.68
2023-01-13T04:28:18.081Z,55.77
2023-01-13T04:30:45.783Z,55.70
2023-01-13T04:33:15.676Z,55.44
2023-01-13T04:35:44.446Z,55.02
2023-01-13T04:38:14.755Z,55.37
2023-01-13T04:40:42.773Z,55.21
2023-01-13T04:43:11.280Z,55.31
2023-01-13T04:45:38.340Z,55.54
2023-01-13T04:48:06.319Z,55.52
2023-01-13T04:50:33.552Z,55.38
2023-01-13T04:53:01.183Z,55.32
2023-01-13T04:55:29.800Z,55.05
2023-01-13T04:58:03.214Z,55.21
2023-01-13T05:00:30.318Z,55.41
2023-01-13T05:02:57.520Z,55.34
2023-01-13T05:05:24.455Z,55.56
2023-01-13T05:07:51.357Z,55.54
2023-01-13T05:10:18.410Z,55.65
2023-01-13T05:13:05.856Z,55.44
2023-01-13T05:15:51.313Z,55.48
2023-01-13T05:18:19.142Z,55.70
2023-01-13T05:20:46.391Z,55.50
2023-01-13T05:23:31.956Z,55.51
2023-01-13T05:25:58.872Z,55.65
2023-01-13T05:28:32.118Z,55.29
2023-01-13T05:30:59.506Z,55.39
2023-01-13T05:33:26.702Z,55.43
2023-01-13T05:35:53.563Z,55.54
2023-01-13T05:38:20.592Z,55.42
2023-01-13T05:41:05.921Z,55.34
2023-01-13T05:43:34.799Z,54.86
2023-01-13T05:46:05.439Z,54.86
2023-01-13T05:48:35.255Z,55.27
2023-01-13T05:51:04.803Z,55.35
2023-01-13T05:53:32.678Z,54.98
2023-01-13T05:56:00.341Z,55.16
2023-01-13T05:58:28.173Z,55.10
2023-01-13T06:01:02.208Z,54.66
2023-01-13T06:03:29.489Z,54.46
2023-01-13T06:06:01.517Z,54.42
2023-01-13T06:08:29.816Z,54.60
2023-01-13T06:10:56.888Z,54.48
2023-01-13T06:13:25.323Z,54.31
2023-01-13T06:15:55.863Z,53.77
2023-01-13T06:18:24.217Z,54.18
2023-01-13T06:20:51.129Z,53.64
2023-01-13T06:23:17.988Z,53.89
2023-01-13T06:25:53.216Z,53.73
2023-01-13T06:28:20.123Z,53.84
2023-01-13T06:30:51.640Z,53.80
2023-01-13T06:33:26.531Z,53.67
2023-01-13T06:36:00.731Z,53.41
2023-01-13T06:38:33.675Z,53.37
2023-01-13T06:41:00.715Z,53.54
2023-01-13T06:43:27.711Z,53.24
2023-01-13T06:45:56.233Z,52.94
2023-01-13T06:48:28.879Z,53.43
2023-01-13T06:50:55.737Z,53.23
2023-01-13T06:53:22.672Z,52.95
2023-01-13T06:55:49.746Z,53.08
2023-01-13T06:58:17.046Z,52.80
2023-01-13T07:00:44.320Z,52.63
2023-01-13T07:03:13.529Z,52.69
2023-01-13T07:05:50.479Z,52.46
2023-01-13T07:08:17.464Z,52.49
2023-01-13T07:10:45.980Z,52.73
2023-01-13T07:13:31.590Z,52.67
2023-01-13T07:16:02.051Z,52.56
2023-01-13T07:18:32.028Z,52.46
2023-01-13T07:21:03.006Z,52.96
2023-01-13T07:23:32.308Z,53.13
2023-01-13T07:26:00.441Z,53.03
2023-01-13T07:28:29.826Z,52.91
2023-01-13T07:30:57.846Z,53.18
2023-01-13T07:33:25.569Z,52.82
2023-01-13T07:35:57.767Z,53.35
2023-01-13T07:38:26.948Z,53.33
2023-01-13T07:40:54.412Z,53.79
2023-01-13T07:43:33.455Z,53.58
2023-01-13T07:46:04.786Z,53.54
2023-01-13T07:48:34.471Z,53.75
2023-01-13T07:51:03.345Z,54.11
2023-01-13T07:53:31.923Z,53.90
2023-01-13T07:56:00.435Z,53.85
2023-01-13T07:58:28.626Z,53.68
2023-01-13T08:00:56.581Z,53.39
2023-01-13T08:03:24.347Z,53.16
2023-01-13T08:05:51.844Z,53.44
2023-01-13T08:08:19.063Z,53.22
2023-01-13T08:10:47.334Z,53.15
2023-01-13T08:13:17.381Z,53.03
2023-01-13T08:15:46.016Z,52.35
2023-01-13T08:18:14.363Z,52.67
2023-01-13T08:20:41.540Z,52.36
2023-01-13T08:23:08.383Z,52.06
2023-01-13T08:25:35.651Z,51.94
2023-01-13T08:28:04.488Z,51.70
2023-01-13T08:30:31.510Z,51.37
2023-01-13T08:32:58.525Z,51.58
2023-01-13T08:35:25.414Z,51.51
2023-01-13T08:37:52.819Z,51.18
2023-01-13T08:40:20.931Z,51.14
2023-01-13T08:42:48.797Z,50.97
2023-01-13T08:45:17.149Z,51.34
2023-01-13T08:47:44.055Z,51.36
2023-01-13T08:50:11.849Z,51.20
2023-01-13T08:52:38.892Z,51.07
2023-01-13T08:55:07.729Z,50.57
2023-01-13T08:57:35.144Z,50.54
2023-01-13T09:00:04.904Z,50.40
2023-01-13T09:02:34.112Z,50.02
2023-01-13T09:05:03.762Z,50.17
2023-01-13T09:07:31.475Z,50.00
2023-01-13T09:09:58.577Z,49.44
2023-01-13T09:12:44.759Z,49.55
2023-01-13T09:15:12.490Z,49.46
2023-01-13T09:17:40.762Z,49.70
2023-01-13T09:20:09.850Z,49.75
2023-01-13T09:22:39.069Z,49.66
2023-01-13T09:25:06.737Z,49.59
2023-01-13T09:27:33.671Z,49.35
2023-01-13T09:30:01.653Z,49.51
2023-01-13T09:32:29.147Z,49.26
2023-01-13T09:34:59.961Z,49.89
2023-01-13T09:37:29.479Z,49.83
2023-01-13T09:39:56.851Z,49.45
2023-01-13T09:42:52.348Z,50.03
2023-01-13T09:45:25.307Z,49.69
2023-01-13T09:48:01.190Z,49.65
2023-01-13T09:50:44.415Z,49.66
2023-01-13T09:53:22.584Z,49.71
2023-01-13T09:55:49.815Z,49.54
2023-01-13T09:58:19.098Z,49.26
2023-01-13T10:01:05.855Z,49.55
2023-01-13T10:03:35.295Z,49.25
2023-01-13T10:06:13.466Z,49.42
2023-01-13T10:08:43.346Z,49.32
2023-01-13T10:11:34.907Z,49.67
2023-01-13T10:14:10.469Z,49.48
2023-01-13T10:16:46.675Z,49.32
2023-01-13T10:19:22.560Z,49.29
2023-01-13T10:22:22.783Z,49.17
2023-01-13T10:25:22.462Z,49.67
2023-01-13T10:27:54.145Z,49.71
2023-01-13T10:30:31.259Z,51.06
2023-01-13T10:33:01.018Z,51.93
2023-01-13T10:35:58.998Z,52.98
2023-01-13T10:38:35.913Z,54.00
2023-01-13T10:41:06.555Z,54.56
2023-01-13T10:43:33.631Z,55.33
2023-01-13T10:46:05.972Z,55.52
2023-01-13T10:48:38.147Z,55.87
2023-01-13T10:51:24.662Z,56.27
2023-01-13T10:53:58.005Z,56.14
2023-01-13T10:56:28.256Z,56.20
2023-01-13T10:59:14.285Z,56.20
2023-01-13T11:01:43.604Z,56.24
2023-01-13T11:04:30.466Z,55.73
2023-01-13T11:06:58.768Z,55.54
2023-01-13T11:09:30.427Z,55.63
2023-01-13T11:11:59.368Z,55.15
2023-01-13T11:14:39.282Z,55.88
2023-01-13T11:17:40.252Z,55.74
2023-01-13T11:20:23.366Z,55.72
2023-01-13T11:22:55.628Z,55.25
2023-01-13T11:25:32.236Z,54.66
2023-01-13T11:28:06.689Z,54.55
2023-01-13T11:30:42.419Z,54.27
2023-01-13T11:33:34.984Z,53.77
2023-01-13T11:36:12.012Z,53.56
2023-01-13T11:38:47.761Z,52.68
2023-01-13T11:41:31.349Z,53.05
2023-01-13T11:44:17.944Z,52.94
2023-01-13T11:46:48.723Z,52.80
2023-01-13T11:49:26.931Z,52.12
2023-01-13T11:52:03.404Z,51.89
2023-01-13T11:55:16.515Z,51.68
2023-01-13T11:58:50.553Z,52.08
2023-01-13T12:01:41.911Z,52.08
2023-01-13T12:04:25.976Z,52.05
2023-01-13T12:07:12.627Z,52.23
2023-01-13T12:09:59.550Z,52.30
2023-01-13T12:12:43.233Z,52.51
2023-01-13T12:15:47.532Z,52.64
2023-01-13T12:18:40.998Z,53.16
2023-01-13T12:21:23.030Z,53.48
2023-01-13T12:24:10.597Z,53.83
2023-01-13T12:26:44.738Z,53.74
2023-01-13T12:29:18.942Z,53.82
2023-01-13T12:31:50.064Z,53.91
2023-01-13T12:34:33.647Z,53.79
2023-01-13T12:37:15.579Z,53.70
2023-01-13T12:39:55.892Z,53.43
2023-01-13T12:42:52.565Z,53.72
2023-01-13T12:45:25.378Z,53.67
2023-01-13T12:47:55.056Z,53.42
2023-01-13T12:50:40.718Z,53.46
2023-01-13T12:53:34.935Z,53.49
2023-01-13T12:56:46.937Z,53.42
2023-01-13T12:59:48.748Z,53.38
2023-01-13T13:02:37.511Z,53.42
2023-01-13T13:05:55.355Z,53.18
2023-01-13T13:08:41.650Z,53.44
2023-01-13T13:11:54.002Z,53.09
2023-01-13T13:15:02.276Z,52.76
2023-01-13T13:17:41.391Z,53.10
2023-01-13T13:20:56.068Z,53.11
2023-01-13T13:23:50.040Z,52.77
2023-01-13T13:26:28.888Z,53.31
2023-01-13T13:29:23.791Z,53.17
2023-01-13T13:32:39.317Z,53.12
2023-01-13T13:35:28.976Z,53.26
2023-01-13T13:38:36.769Z,53.09
2023-01-13T13:41:32.084Z,53.42
2023-01-13T13:44:29.202Z,53.30
2023-01-13T13:47:00.686Z,53.77
2023-01-13T13:49:40.686Z,53.91
2023-01-13T13:52:17.781Z,53.91
2023-01-13T13:54:54.636Z,53.70
2023-01-13T13:57:30.839Z,54.08
2023-01-13T14:00:00.621Z,53.98
2023-01-13T14:02:31.228Z,54.05
2023-01-13T14:05:17.075Z,53.90
2023-01-13T14:07:47.199Z,53.43
2023-01-13T14:10:21.758Z,53.45
2023-01-13T14:12:48.759Z,53.02
2023-01-13T14:15:26.720Z,52.96
2023-01-13T14:17:54.439Z,52.79
2023-01-13T14:20:21.456Z,53.35
2023-01-13T14:22:49.303Z,52.95
2023-01-13T14:25:31.036Z,53.58
2023-01-13T14:28:17.096Z,53.72
2023-01-13T14:30:44.750Z,53.86
2023-01-13T14:33:17.900Z,53.40
2023-01-13T14:36:15.784Z,52.96
2023-01-13T14:38:45.928Z,52.86
2023-01-13T14:41:22.791Z,52.56
2023-01-13T14:43:54.067Z,52.06
2023-01-13T14:46:24.935Z,52.08
2023-01-13T14:49:00.964Z,52.29
2023-01-13T14:51:30.063Z,52.42
2023-01-13T14:53:58.377Z,52.45
2023-01-13T14:56:43.383Z,52.16
2023-01-13T14:59:47.626Z,52.24
2023-01-13T15:02:40.967Z,51.86
2023-01-13T15:05:34.216Z,52.04
2023-01-13T15:08:08.950Z,51.75
2023-01-13T15:10:45.672Z,51.65
2023-01-13T15:13:31.879Z,51.93
2023-01-13T15:16:02.296Z,51.70
2023-01-13T15:18:29.218Z,51.98
2023-01-13T15:20:56.269Z,51.92
2023-01-13T15:23:23.323Z,52.38
2023-01-13T15:25:50.396Z,52.30
2023-01-13T15:28:21.692Z,52.18
2023-01-13T15:30:50.505Z,52.54
2023-01-13T15:33:19.494Z,52.42
2023-01-13T15:35:49.959Z,52.94
2023-01-13T15:38:20.452Z,52.60
2023-01-13T15:40:50.072Z,52.68
2023-01-13T15:43:39.708Z,52.50
2023-01-13T15:46:33.407Z,52.80
2023-01-13T15:49:09.580Z,52.73
2023-01-13T15:51:36.593Z,52.79
2023-01-13T15:54:03.629Z,52.69
2023-01-13T15:56:30.799Z,52.63
2023-01-13T15:58:59.141Z,52.73
2023-01-13T16:01:26.129Z,52.48
2023-01-13T16:03:53.150Z,52.86
2023-01-13T16:06:27.604Z,52.92
2023-01-13T16:08:54.506Z,53.15
2023-01-13T16:11:21.419Z,53.18
2023-01-13T16:13:48.335Z,53.05
2023-01-13T16:16:21.688Z,53.07
2023-01-13T16:18:49.323Z,52.93
2023-01-13T16:21:16.884Z,53.05
2023-01-13T16:23:43.829Z,53.06
2023-01-13T16:26:20.493Z,52.95
2023-01-13T16:28:48.513Z,52.91
2023-01-13T16:31:22.820Z,53.04
2023-01-13T16:33:50.304Z,52.96
2023-01-13T16:36:19.984Z,52.93
2023-01-13T16:38:48.564Z,52.97
2023-01-13T16:41:15.743Z,52.65
2023-01-13T16:43:43.086Z,52.64
2023-01-13T16:46:24.728Z,52.72
2023-01-13T16:48:53.578Z,53.13
2023-01-13T16:51:21.758Z,53.13
2023-01-13T16:53:49.522Z,53.36
2023-01-13T16:56:24.457Z,53.91
2023-01-13T16:58:53.143Z,53.46
2023-01-13T17:01:25.596Z,53.52
2023-01-13T17:03:53.966Z,53.90
2023-01-13T17:06:27.414Z,53.90
2023-01-13T17:08:54.690Z,53.97
2023-01-13T17:11:22.061Z,53.86
2023-01-13T17:13:49.113Z,54.18
2023-01-13T17:16:22.064Z,53.93
2023-01-13T17:18:49.166Z,54.13
2023-01-13T17:21:16.882Z,53.94
2023-01-13T17:23:44.326Z,53.90
2023-01-13T17:26:32.101Z,54.00
2023-01-13T17:29:00.760Z,54.00
2023-01-13T17:31:29.802Z,54.15
2023-01-13T17:33:56.925Z,54.20
2023-01-13T17:36:25.548Z,54.52
2023-01-13T17:38:53.582Z,55.02
2023-01-13T17:41:20.741Z,55.58
2023-01-13T17:43:48.014Z,55.95
2023-01-13T17:46:19.744Z,56.19
2023-01-13T17:48:49.864Z,56.27
2023-01-13T17:51:18.674Z,56.50
2023-01-13T17:53:45.711Z,56.57
2023-01-13T17:56:15.238Z,56.04
2023-01-13T17:58:42.799Z,55.95
2023-01-13T18:01:14.058Z,56.20
2023-01-13T18:03:41.035Z,56.19
2023-01-13T18:06:16.659Z,56.51
2023-01-13T18:08:43.824Z,56.88
2023-01-13T18:11:10.794Z,57.38
2023-01-13T18:13:40.969Z,57.69
2023-01-13T18:16:11.868Z,58.12
2023-01-13T18:18:41.714Z,58.64
2023-01-13T18:21:36.706Z,59.18
2023-01-13T18:24:23.198Z,59.56
2023-01-13T18:27:08.758Z,60.18
2023-01-13T18:29:35.633Z,60.47
2023-01-13T18:32:02.523Z,60.44
2023-01-13T18:34:29.709Z,60.68
2023-01-13T18:36:58.161Z,61.04
2023-01-13T18:39:25.107Z,60.89
2023-01-13T18:42:10.963Z,60.70
2023-01-13T18:44:37.992Z,60.95
2023-01-13T18:47:05.100Z,60.42
2023-01-13T18:49:32.036Z,60.73
2023-01-13T18:52:00.569Z,60.70
2023-01-13T18:54:27.788Z,60.49
2023-01-13T18:56:56.028Z,60.27
2023-01-13T18:59:24.536Z,60.45
2023-01-13T19:01:52.049Z,60.39
2023-01-13T19:04:19.611Z,60.28
2023-01-13T19:06:50.760Z,59.92
2023-01-13T19:09:24.574Z,59.72
2023-01-13T19:11:52.087Z,59.67
2023-01-13T19:14:37.243Z,59.62
2023-01-13T19:17:09.290Z,59.58
2023-01-13T19:19:40.448Z,59.44
2023-01-13T19:22:08.419Z,59.49
2023-01-13T19:24:37.151Z,59.16
2023-01-13T19:27:04.467Z,59.18
2023-01-13T19:29:33.808Z,59.03
2023-01-13T19:32:01.137Z,59.19
2023-01-13T19:34:28.890Z,58.86
2023-01-13T19:36:55.870Z,58.90
2023-01-13T19:39:23.898Z,58.86
2023-01-13T19:42:11.476Z,58.53
2023-01-13T19:44:57.585Z,58.85
2023-01-13T19:47:24.645Z,58.79
2023-01-13T19:49:51.574Z,58.81
2023-01-13T19:52:18.535Z,58.88
2023-01-13T19:54:47.042Z,59.10
2023-01-13T19:57:15.704Z,59.16
2023-01-13T19:59:42.925Z,59.17
2023-01-13T20:02:15.383Z,59.11
2023-01-13T20:04:45.184Z,59.32
2023-01-13T20:07:13.687Z,59.33
2023-01-13T20:09:44.869Z,59.27
2023-01-13T20:12:17.850Z,59.08
2023-01-13T20:14:49.955Z,59.14
2023-01-13T20:17:20.989Z,58.95
2023-01-13T20:19:49.245Z,58.48
2023-01-13T20:22:16.152Z,58.65
2023-01-13T20:24:43.399Z,58.78
2023-01-13T20:27:10.360Z,58.70
2023-01-13T20:29:38.086Z,58.60
2023-01-13T20:32:06.455Z,58.41
2023-01-13T20:34:33.618Z,58.43
2023-01-13T20:37:00.818Z,58.34
2023-01-13T20:39:27.856Z,58.12
2023-01-13T20:42:14.148Z,57.82
2023-01-13T20:44:41.813Z,57.74
2023-01-13T20:47:10.107Z,57.66
2023-01-13T20:49:37.038Z,57.68
2023-01-13T20:52:09.495Z,57.72
2023-01-13T20:54:37.517Z,57.69
2023-01-13T20:57:07.684Z,56.95
2023-01-13T20:59:35.720Z,57.40
2023-01-13T21:02:03.585Z,57.79
2023-01-13T21:04:32.199Z,57.60
2023-01-13T21:06:59.437Z,57.27
2023-01-13T21:09:27.163Z,57.11
2023-01-13T21:12:13.280Z,57.19
2023-01-13T21:14:59.270Z,57.12
2023-01-13T21:17:45.437Z,57.37
2023-01-13T21:20:15.517Z,57.22
2023-01-13T21:22:45.091Z,57.34
2023-01-13T21:25:13.283Z,57.47
2023-01-13T21:27:41.644Z,57.55
2023-01-13T21:30:14.650Z,57.60
2023-01-13T21:32:43.579Z,57.61
2023-01-13T21:35:13.178Z,57.85
2023-01-13T21:37:42.337Z,57.96
2023-01-13T21:40:13.424Z,57.92
2023-01-13T21:43:04.071Z,58.15
2023-01-13T21:45:49.694Z,58.12
2023-01-13T21:48:16.597Z,58.13
2023-01-13T21:50:45.220Z,58.30
2023-01-13T21:53:12.129Z,58.43
2023-01-13T21:55:39.035Z,58.65
2023-01-13T21:58:11.481Z,58.36
2023-01-13T22:00:40.678Z,58.51
2023-01-13T22:03:09.802Z,58.54
2023-01-13T22:05:37.413Z,58.54
2023-01-13T22:08:06.960Z,58.74
2023-01-13T22:10:34.386Z,58.66
2023-01-13T22:13:23.198Z,58.66
2023-01-13T22:15:50.146Z,59.01
2023-01-13T22:18:18.112Z,58.97
2023-01-13T22:20:45.261Z,59.15
2023-01-13T22:23:13.740Z,59.37
2023-01-13T22:25:40.701Z,59.78
2023-01-13T22:28:09.139Z,59.73
2023-01-13T22:30:36.525Z,59.91
2023-01-13T22:33:03.700Z,59.80
2023-01-13T22:35:30.820Z,60.00
2023-01-13T22:37:58.513Z,60.12
2023-01-13T22:40:26.824Z,60.19
2023-01-13T22:42:53.691Z,60.46
2023-01-13T22:45:20.630Z,59.90
2023-01-13T22:47:49.490Z,59.98
2023-01-13T22:50:20.622Z,59.93
2023-01-13T22:52:47.618Z,59.61
2023-01-13T22:55:14.770Z,59.56
2023-01-13T22:57:47.967Z,59.59
2023-01-13T23:00:18.695Z,59.55
2023-01-13T23:02:45.726Z,59.60
2023-01-13T23:05:13.654Z,59.47
2023-01-13T23:07:40.989Z,59.43
2023-01-13T23:10:09.295Z,59.50
2023-01-13T23:12:36.326Z,59.48
2023-01-13T23:15:05.835Z,59.24
2023-01-13T23:17:32.797Z,58.77
2023-01-13T23:19:59.723Z,58.76
2023-01-13T23:22:26.760Z,58.67
2023-01-13T23:24:53.667Z,58.51
2023-01-13T23:27:20.562Z,58.42
2023-01-13T23:29:47.463Z,58.50
2023-01-13T23:32:15.699Z,58.44
2023-01-13T23:34:42.677Z,58.54
2023-01-13T23:37:09.582Z,58.64
2023-01-13T23:39:36.530Z,58.80
2023-01-13T23:42:04.824Z,58.63
2023-01-13T23:44:31.767Z,58.62
2023-01-13T23:46:58.824Z,58.43
2023-01-13T23:49:27.349Z,58.75
2023-01-13T23:51:54.360Z,58.70
2023-01-13T23:54:21.450Z,58.74
2023-01-13T23:56:52.364Z,58.54
2023-01-13T23:59:20.023Z,58.56
